Time;durP1;ratioP1;P1;durP2;ratioP2;P2;SDS_P1;SDS_P2;PMS_P1;PMS_P2;Temp;Humidity;BMP_temperature;BMP_pressure;BME280_temperature;BME280_humidity;BME280_pressure;Samples;Min_cycle;Max_cycle;Signal;HPM_P1;HPM_P2
2023/03/02 00:01:49;;;;;;;9.18;5.85;;;;;;;0.44;63.06;102348.38;5036417;28;20927;-71
2023/03/02 00:04:44;;;;;;;8.95;5.45;;;;;;;0.45;63.09;102351.88;5029237;28;20046;-71
2023/03/02 00:07:18;;;;;;;8.38;5.50;;;;;;;0.42;63.17;102341.38;5042136;28;20091;-72
2023/03/02 00:09:46;;;;;;;7.22;4.57;;;;;;;0.39;63.23;102336.06;5046523;28;20742;-71
2023/03/02 00:12:15;;;;;;;7.88;5.65;;;;;;;0.35;63.53;102342.00;5047941;28;20045;-72
2023/03/02 00:14:42;;;;;;;9.68;4.68;;;;;;;0.31;63.52;102343.56;5046264;28;20104;-71
2023/03/02 00:17:09;;;;;;;9.43;5.65;;;;;;;0.26;63.56;102348.59;5044447;28;20490;-71
2023/03/02 00:19:37;;;;;;;7.45;5.43;;;;;;;0.24;63.99;102347.66;5062704;28;20120;-71
2023/03/02 00:22:04;;;;;;;10.00;5.22;;;;;;;0.21;63.87;102344.94;5046033;28;20068;-71
2023/03/02 00:24:31;;;;;;;9.15;5.00;;;;;;;0.18;63.85;102351.75;5046744;28;20045;-71
2023/03/02 00:26:59;;;;;;;8.77;5.60;;;;;;;0.14;63.97;102350.75;5053403;28;20069;-71
2023/03/02 00:29:26;;;;;;;7.40;4.85;;;;;;;0.13;64.23;102348.97;5037403;28;20105;-71
2023/03/02 00:31:53;;;;;;;7.88;5.00;;;;;;;0.09;64.21;102347.09;5032913;28;20046;-71
2023/03/02 00:34:20;;;;;;;9.25;5.82;;;;;;;0.12;64.23;102348.09;5033340;28;20584;-71
2023/03/02 00:36:50;;;;;;;7.55;5.05;;;;;;;0.11;64.30;102341.13;5043784;28;20034;-71
2023/03/02 00:39:18;;;;;;;9.05;4.90;;;;;;;0.11;64.47;102337.66;5027422;28;20034;-72
2023/03/02 00:41:47;;;;;;;8.00;5.35;;;;;;;0.09;64.54;102340.22;5040743;28;20795;-71
2023/03/02 00:44:18;;;;;;;8.27;5.68;;;;;;;0.05;64.68;102335.72;5051397;28;20037;-71
2023/03/02 00:46:45;;;;;;;8.88;5.30;;;;;;;0.03;64.85;102339.97;5040799;28;20504;-71
2023/03/02 00:49:12;;;;;;;9.55;5.80;;;;;;;0.02;64.82;102333.00;5036319;28;20042;-71
2023/03/02 00:51:39;;;;;;;9.30;5.82;;;;;;;-0.02;64.97;102328.56;5059852;28;20120;-71
2023/03/02 00:54:06;;;;;;;9.50;5.75;;;;;;;-0.01;65.12;102330.31;5044364;28;20553;-71
2023/03/02 00:56:34;;;;;;;9.55;5.45;;;;;;;-0.05;65.41;102326.69;5056757;28;20048;-71
2023/03/02 01:02:23;;;;;;;9.05;4.88;;;;;;;-0.15;65.76;102322.00;5035635;28;20800;-71
2023/03/02 01:04:54;;;;;;;9.57;5.22;;;;;;;-0.16;66.06;102326.31;5045600;28;20572;-72
2023/03/02 01:07:25;;;;;;;10.07;6.32;;;;;;;-0.17;66.19;102327.13;5029476;28;20121;-71
2023/03/02 01:09:52;;;;;;;8.23;5.00;;;;;;;-0.17;66.54;102329.72;5060230;28;20085;-71
2023/03/02 01:12:19;;;;;;;10.57;6.47;;;;;;;-0.14;66.83;102322.91;5031236;28;20571;-72
2023/03/02 01:14:49;;;;;;;8.43;6.07;;;;;;;-0.13;66.68;102327.25;5039991;28;20042;-71
2023/03/02 01:17:18;;;;;;;9.45;6.18;;;;;;;-0.18;66.79;102320.19;5041513;28;20544;-71
2023/03/02 01:19:45;;;;;;;11.13;6.50;;;;;;;-0.20;67.02;102327.00;5047849;28;20038;-70
2023/03/02 01:22:12;;;;;;;9.45;6.47;;;;;;;-0.22;67.58;102326.09;5043945;28;20033;-70
2023/03/02 01:24:39;;;;;;;8.93;6.03;;;;;;;-0.25;67.59;102331.16;5030754;28;20042;-71
2023/03/02 01:27:52;;;;;;;10.85;6.05;;;;;;;-0.26;68.13;102334.56;5090145;28;20446;-69
2023/03/02 01:30:19;;;;;;;15.07;7.70;;;;;;;-0.24;68.67;102343.28;5080863;28;20048;-69
2023/03/02 01:32:46;;;;;;;10.73;6.72;;;;;;;-0.25;68.73;102338.94;5094916;27;20048;-70
2023/03/02 01:35:13;;;;;;;10.50;6.03;;;;;;;-0.25;69.01;102338.03;5072456;28;20036;-69
2023/03/02 01:37:40;;;;;;;12.32;7.65;;;;;;;-0.23;69.48;102331.19;5077917;28;20037;-72
2023/03/02 01:40:12;;;;;;;11.43;7.88;;;;;;;-0.27;69.51;102327.59;5111192;27;20175;-70
2023/03/02 01:42:51;;;;;;;14.45;8.50;;;;;;;-0.30;69.89;102327.47;5068749;28;20143;-70
2023/03/02 01:45:52;;;;;;;13.52;8.60;;;;;;;-0.33;70.24;102329.97;5071000;28;20041;-70
2023/03/02 01:48:58;;;;;;;14.15;8.75;;;;;;;-0.35;70.70;102316.94;5083046;28;20532;-70
2023/03/02 01:51:42;;;;;;;13.10;7.70;;;;;;;-0.39;70.95;102317.66;5073581;28;20064;-69
2023/03/02 01:54:21;;;;;;;13.85;9.88;;;;;;;-0.35;71.92;102306.56;5074791;28;20041;-70
2023/03/02 01:57:02;;;;;;;13.07;8.05;;;;;;;-0.30;72.23;102313.66;5073174;28;20128;-70
2023/03/02 01:59:32;;;;;;;16.42;9.10;;;;;;;-0.37;72.43;102308.25;5068134;28;20033;-70
2023/03/02 02:02:05;;;;;;;16.60;9.27;;;;;;;-0.35;72.97;102303.97;5060900;28;20753;-70
2023/03/02 02:04:37;;;;;;;14.93;8.93;;;;;;;-0.34;73.31;102310.94;5063312;28;20037;-70
2023/03/02 02:07:07;;;;;;;16.88;11.93;;;;;;;-0.35;73.91;102303.13;5090554;28;20046;-70
2023/03/02 02:09:44;;;;;;;14.10;8.57;;;;;;;-0.34;74.44;102312.66;5075501;28;20041;-70
2023/03/02 02:12:17;;;;;;;17.98;13.00;;;;;;;-0.38;74.97;102310.75;5081185;28;20086;-72
2023/03/02 02:14:47;;;;;;;16.75;12.75;;;;;;;-0.38;75.19;102305.56;5079786;28;20145;-72
2023/03/02 02:17:17;;;;;;;19.85;11.35;;;;;;;-0.41;75.73;102311.53;5063000;28;20076;-70
2023/03/02 02:20:06;;;;;;;19.83;13.27;;;;;;;-0.42;76.25;102302.00;5077752;28;20038;-70
2023/03/02 02:22:52;;;;;;;21.48;14.50;;;;;;;-0.42;76.85;102299.41;5075983;28;20523;-70
2023/03/02 02:25:43;;;;;;;23.85;12.30;;;;;;;-0.40;77.37;102294.25;5064903;28;20037;-70
2023/03/02 02:28:20;;;;;;;27.92;14.15;;;;;;;-0.43;77.88;102289.84;5080886;28;20044;-70
2023/03/02 02:31:02;;;;;;;27.90;13.68;;;;;;;-0.43;78.41;102287.25;5052399;28;20045;-70
2023/03/02 02:33:33;;;;;;;25.58;14.20;;;;;;;-0.42;78.84;102277.78;5087583;28;20037;-70
2023/03/02 02:36:12;;;;;;;29.00;18.98;;;;;;;-0.43;79.26;102273.44;5053308;28;20587;-70
2023/03/02 02:38:44;;;;;;;27.55;15.43;;;;;;;-0.49;79.34;102274.09;5051719;28;20514;-71
2023/03/02 02:41:21;;;;;;;21.83;13.27;;;;;;;-0.49;79.75;102281.84;5056356;28;20124;-70
2023/03/02 02:43:50;;;;;;;30.50;18.95;;;;;;;-0.49;79.95;102280.13;5060097;28;20045;-71
2023/03/02 02:46:17;;;;;;;29.30;19.13;;;;;;;-0.51;80.20;102280.91;5047656;28;20045;-72
2023/03/02 02:48:44;;;;;;;31.00;20.38;;;;;;;-0.48;80.55;102286.22;5066909;28;20037;-71
2023/03/02 02:51:21;;;;;;;32.70;20.90;;;;;;;-0.46;80.99;102287.16;5068270;28;20033;-70
2023/03/02 02:54:02;;;;;;;30.85;20.52;;;;;;;-0.48;81.17;102286.22;5054662;28;20132;-69
2023/03/02 02:56:38;;;;;;;31.85;21.48;;;;;;;-0.49;81.49;102276.69;5049615;28;20832;-71
2023/03/02 02:59:27;;;;;;;;;;;;;;;-0.52;81.50;102285.22;5073713;28;22240;-70
2023/03/02 03:01:59;;;;;;;32.72;21.75;;;;;;;-0.53;82.08;102286.03;5055945;28;20895;-70
2023/03/02 03:04:30;;;;;;;29.85;17.08;;;;;;;-0.53;82.30;102282.56;5038471;28;20575;-71
2023/03/02 03:07:05;;;;;;;31.77;17.02;;;;;;;-0.59;82.31;102284.91;5050179;28;20149;-73
2023/03/02 03:09:32;;;;;;;25.20;14.23;;;;;;;-0.59;82.37;102287.50;5049011;28;20041;-71
2023/03/02 03:12:10;;;;;;;32.28;20.35;;;;;;;-0.63;82.45;102282.19;5057092;28;20041;-71
2023/03/02 03:14:40;;;;;;;36.85;23.73;;;;;;;-0.63;82.84;102279.59;5063901;28;20610;-73
2023/03/02 03:17:12;;;;;;;33.10;22.23;;;;;;;-0.60;83.07;102283.16;5030194;28;20049;-71
2023/03/02 03:19:52;;;;;;;32.03;17.48;;;;;;;-0.61;82.99;102273.59;5056734;28;20638;-72
2023/03/02 03:22:19;;;;;;;27.42;15.32;;;;;;;-0.61;83.20;102283.97;5065778;28;20453;-71
2023/03/02 03:24:49;;;;;;;32.35;17.90;;;;;;;-0.65;83.42;102278.66;5046922;28;20038;-72
2023/03/02 03:27:17;;;;;;;34.75;18.88;;;;;;;-0.65;83.53;102270.88;5057127;28;20470;-72
2023/03/02 03:29:49;;;;;;;35.60;18.92;;;;;;;-0.65;83.38;102276.06;5063393;28;20044;-72
2023/03/02 03:32:19;;;;;;;33.30;18.23;;;;;;;-0.69;83.59;102275.88;5050411;28;20029;-72
2023/03/02 03:34:48;;;;;;;37.97;19.95;;;;;;;-0.72;83.68;102274.06;5030445;28;20041;-72
2023/03/02 03:37:25;;;;;;;34.53;19.13;;;;;;;-0.72;83.90;102286.16;5061881;28;20540;-72
2023/03/02 03:39:54;;;;;;;33.90;19.88;;;;;;;-0.74;84.00;102274.84;5063483;28;20764;-71
2023/03/02 03:42:22;;;;;;;36.78;19.42;;;;;;;-0.78;84.13;102273.84;5046230;28;20050;-72
2023/03/02 03:44:51;;;;;;;36.08;19.33;;;;;;;-0.79;84.13;102269.47;5082547;28;20513;-72
2023/03/02 03:47:21;;;;;;;37.00;20.42;;;;;;;-0.79;84.40;102278.13;5078373;28;20045;-72
2023/03/02 03:49:49;;;;;;;38.22;22.70;;;;;;;-0.81;84.12;102279.75;5069380;28;20044;-71
2023/03/02 03:52:16;;;;;;;34.53;19.02;;;;;;;-0.81;84.47;102273.72;5061893;28;20051;-70
2023/03/02 03:54:43;;;;;;;35.75;22.60;;;;;;;-0.84;84.25;102279.66;5053402;28;20041;-70
2023/03/02 03:57:10;;;;;;;30.63;18.30;;;;;;;-0.86;84.08;102277.81;5056302;28;20133;-71
2023/03/02 03:59:38;;;;;;;36.80;24.08;;;;;;;-0.84;84.28;102278.75;5057910;28;20057;-72
2023/03/02 04:02:05;;;;;;;37.97;19.05;;;;;;;-0.84;84.52;102279.66;5050550;28;21002;-70
2023/03/02 04:04:37;;;;;;;35.95;19.15;;;;;;;-0.86;84.46;102278.72;5076977;28;20042;-70
2023/03/02 04:07:09;;;;;;;38.55;24.00;;;;;;;-0.84;84.57;102279.66;5062424;28;20046;-70
2023/03/02 04:09:38;;;;;;;36.53;19.00;;;;;;;-0.86;84.94;102276.13;5043616;28;20156;-71
2023/03/02 04:12:08;;;;;;;36.22;19.23;;;;;;;-0.85;85.33;102271.81;5073308;28;20947;-70
2023/03/02 04:14:37;;;;;;;41.97;25.35;;;;;;;-0.87;85.58;102282.13;5081685;28;20045;-70
2023/03/02 04:17:05;;;;;;;39.55;21.70;;;;;;;-0.90;86.01;102275.94;5062663;28;20541;-71
2023/03/02 04:19:36;;;;;;;42.38;21.15;;;;;;;-0.91;86.01;102281.94;5068165;28;20040;-71
2023/03/02 04:22:04;;;;;;;40.00;20.02;;;;;;;-0.92;86.70;102275.88;5070348;28;20537;-71
2023/03/02 04:24:32;;;;;;;42.50;21.52;;;;;;;-0.92;86.70;102272.41;5047614;28;20060;-71
2023/03/02 04:27:02;;;;;;;37.53;19.40;;;;;;;-0.92;86.93;102277.56;5065536;28;20619;-71
2023/03/02 04:29:31;;;;;;;39.47;20.40;;;;;;;-0.93;87.07;102281.88;5069402;28;20033;-71
2023/03/02 04:31:59;;;;;;;43.30;19.85;;;;;;;-0.92;87.21;102280.16;5044855;28;20107;-71
2023/03/02 04:34:27;;;;;;;36.30;18.85;;;;;;;-0.95;87.43;102270.56;5062372;28;20124;-71
2023/03/02 04:36:55;;;;;;;35.92;17.45;;;;;;;-0.92;87.51;102281.06;5066645;28;20115;-70
2023/03/02 04:39:22;;;;;;;41.08;20.40;;;;;;;-0.89;87.60;102282.88;5062731;28;20541;-70
2023/03/02 04:41:52;;;;;;;35.17;19.73;;;;;;;-0.89;88.02;102281.16;5044905;28;20041;-70
2023/03/02 04:44:20;;;;;;;44.55;20.08;;;;;;;-0.88;87.79;102282.94;5062570;28;20661;-71
2023/03/02 04:46:49;;;;;;;39.65;19.15;;;;;;;-0.87;87.94;102276.06;5061448;28;20041;-71
2023/03/02 04:49:18;;;;;;;42.53;21.42;;;;;;;-0.89;87.96;102275.13;5078069;28;20055;-70
2023/03/02 04:51:48;;;;;;;42.35;20.90;;;;;;;-0.93;88.10;102268.94;5089666;28;20798;-71
2023/03/02 04:54:25;;;;;;;45.97;27.80;;;;;;;-0.94;88.14;102277.53;5046096;28;21892;-71
2023/03/02 04:56:53;;;;;;;42.70;21.13;;;;;;;-0.96;88.24;102276.56;5069177;28;20038;-71
2023/03/02 04:59:26;;;;;;;44.58;21.38;;;;;;;-0.97;88.24;102273.09;5046960;28;21051;-72
2023/03/02 05:01:59;;;;;;;45.72;21.92;;;;;;;-0.99;88.22;102279.03;5038787;28;20041;-72
2023/03/02 05:04:27;;;;;;;48.55;21.75;;;;;;;-1.01;88.25;102278.06;5061727;28;20566;-72
2023/03/02 05:06:56;;;;;;;42.90;21.50;;;;;;;-1.07;88.16;102283.91;5062221;28;20041;-72
2023/03/02 05:09:29;;;;;;;46.67;24.00;;;;;;;-1.13;88.21;102281.97;5056105;28;20034;-72
2023/03/02 05:11:59;;;;;;;46.57;21.77;;;;;;;-1.12;88.21;102283.69;5046486;28;20088;-73
2023/03/02 05:14:28;;;;;;;44.20;20.40;;;;;;;-1.12;88.57;102275.06;5045337;28;20267;-72
2023/03/02 05:16:55;;;;;;;43.75;21.10;;;;;;;-1.12;88.46;102275.94;5059942;28;20033;-71
2023/03/02 05:19:23;;;;;;;46.38;21.95;;;;;;;-1.15;88.40;102280.09;5048394;28;20645;-71
2023/03/02 05:21:50;;;;;;;46.33;21.50;;;;;;;-1.17;88.75;102277.47;5039052;28;20045;-71
2023/03/02 05:24:17;;;;;;;37.97;18.33;;;;;;;-1.18;88.74;102270.50;5064509;28;20037;-70
2023/03/02 05:26:44;;;;;;;48.85;23.27;;;;;;;-1.17;89.09;102284.38;5054383;28;20176;-72
2023/03/02 05:29:11;;;;;;;46.47;22.42;;;;;;;-1.20;89.19;102282.50;5061055;28;20048;-72
2023/03/02 05:31:42;;;;;;;47.67;22.35;;;;;;;-1.25;89.41;102278.84;5051486;28;20038;-70
2023/03/02 05:34:13;;;;;;;50.17;22.83;;;;;;;-1.26;89.49;102277.09;5052228;28;20091;-71
2023/03/02 05:36:41;;;;;;;55.78;30.70;;;;;;;-1.28;89.70;102274.44;5062631;28;20509;-72
2023/03/02 05:39:08;;;;;;;47.08;20.67;;;;;;;-1.33;89.72;102273.34;5069894;28;20037;-70
2023/03/02 05:41:36;;;;;;;47.72;17.92;;;;;;;-1.32;89.83;102276.84;5055497;28;20033;-71
2023/03/02 05:44:08;;;;;;;45.78;19.33;;;;;;;-1.21;91.21;102277.28;5048719;28;20045;-72
2023/03/02 05:46:35;;;;;;;44.50;21.17;;;;;;;-1.04;91.29;102273.66;5061044;28;20138;-73
2023/03/02 05:49:03;;;;;;;54.53;31.25;;;;;;;-1.00;90.84;102261.72;5072820;28;20041;-71
2023/03/02 05:51:30;;;;;;;42.58;19.65;;;;;;;-1.02;89.62;102268.56;5058847;28;20577;-70
2023/03/02 05:53:57;;;;;;;50.35;29.25;;;;;;;-1.12;89.25;102262.13;5060847;28;20029;-77
2023/03/02 05:56:25;;;;;;;51.83;29.38;;;;;;;-1.19;89.28;102263.56;5074641;28;20516;-71
2023/03/02 05:58:52;;;;;;;49.58;28.13;;;;;;;-1.20;89.20;102268.69;5061099;28;20037;-70
2023/03/02 06:01:19;;;;;;;45.88;20.75;;;;;;;-1.26;89.06;102259.84;5078249;28;20052;-71
2023/03/02 06:03:46;;;;;;;39.13;19.17;;;;;;;-1.29;89.20;102257.16;5063381;28;20037;-72
2023/03/02 06:06:13;;;;;;;45.80;26.95;;;;;;;-1.31;89.10;102253.59;5062133;28;20063;-71
2023/03/02 06:08:42;;;;;;;49.65;28.15;;;;;;;-1.25;88.99;102255.56;5057105;28;20057;-76
2023/03/02 06:11:10;;;;;;;41.03;18.70;;;;;;;-1.25;88.51;102256.44;5060270;28;20040;-68
2023/03/02 06:13:38;;;;;;;42.25;18.30;;;;;;;-1.28;88.33;102256.34;5090845;28;20046;-68
2023/03/02 06:16:07;;;;;;;41.42;19.30;;;;;;;-1.29;88.57;102261.44;5064821;28;20551;-70
2023/03/02 06:18:36;;;;;;;48.95;20.48;;;;;;;-1.31;88.39;102266.53;5059060;28;20043;-69
2023/03/02 06:21:07;;;;;;;42.00;19.02;;;;;;;-1.32;88.28;102269.94;5061253;28;20596;-70
2023/03/02 06:23:34;;;;;;;45.20;21.10;;;;;;;-1.33;88.18;102267.31;5087170;28;20052;-70
2023/03/02 06:26:10;;;;;;;49.55;21.70;;;;;;;-1.30;88.20;102270.00;5061644;28;20057;-69
2023/03/02 06:28:38;;;;;;;41.30;18.88;;;;;;;-1.32;88.14;102275.13;5077571;28;20045;-68
2023/03/02 06:31:19;;;;;;;40.95;19.05;;;;;;;-1.33;88.29;102280.25;5077467;28;20073;-69
2023/03/02 06:33:46;;;;;;;43.75;19.67;;;;;;;-1.33;88.46;102273.34;5082153;28;20064;-68
2023/03/02 06:36:15;;;;;;;49.40;28.00;;;;;;;-1.33;88.33;102275.94;5063561;28;20043;-68
2023/03/02 06:38:43;;;;;;;34.10;17.42;;;;;;;-1.36;88.24;102280.13;5066645;28;20041;-71
2023/03/02 06:41:10;;;;;;;40.03;19.23;;;;;;;-1.36;88.11;102269.75;5066789;28;20468;-69
2023/03/02 06:43:37;;;;;;;38.83;19.85;;;;;;;-1.34;88.26;102286.25;5065199;28;20041;-68
2023/03/02 06:46:04;;;;;;;47.05;21.10;;;;;;;-1.35;87.92;102280.16;5063680;28;20049;-68
2023/03/02 06:48:31;;;;;;;52.38;21.95;;;;;;;-1.32;87.79;102280.31;5065484;28;20043;-68
2023/03/02 06:50:58;;;;;;;44.40;20.52;;;;;;;-1.28;87.92;102273.53;5083823;28;20037;-69
2023/03/02 06:53:25;;;;;;;43.90;19.50;;;;;;;-1.21;87.57;102280.72;5067680;28;20051;-69
2023/03/02 06:55:52;;;;;;;42.97;20.45;;;;;;;-1.20;87.37;102274.75;5067788;28;20037;-69
2023/03/02 06:58:19;;;;;;;48.30;20.70;;;;;;;-1.22;87.37;102281.56;5066508;28;20048;-69
2023/03/02 07:00:46;;;;;;;43.40;19.45;;;;;;;-1.19;87.07;102279.09;5065659;28;20041;-70
2023/03/02 07:03:13;;;;;;;46.10;22.73;;;;;;;-1.12;86.90;102283.69;5062596;28;20037;-68
2023/03/02 07:05:40;;;;;;;45.88;26.17;;;;;;;-1.09;86.73;102288.16;5064317;28;20048;-69
2023/03/02 07:08:11;;;;;;;48.45;26.33;;;;;;;-1.04;86.59;102289.19;5050671;28;20929;-69
2023/03/02 07:10:38;;;;;;;39.60;18.48;;;;;;;-1.03;86.42;102295.28;5067030;28;20048;-70
2023/03/02 07:13:05;;;;;;;34.10;16.58;;;;;;;-0.95;86.10;102306.81;5064929;28;20496;-69
2023/03/02 07:15:38;;;;;;;36.13;16.70;;;;;;;-0.91;85.89;102302.66;5048598;28;20040;-68
2023/03/02 07:18:05;;;;;;;41.28;18.02;;;;;;;-0.84;85.46;102294.28;5059565;28;20038;-70
2023/03/02 07:20:33;;;;;;;32.47;16.08;;;;;;;-0.84;85.65;102302.06;5056586;28;20218;-69
2023/03/02 07:23:00;;;;;;;37.13;18.65;;;;;;;-0.80;85.29;102312.59;5066577;28;20041;-69
2023/03/02 07:25:27;;;;;;;43.33;23.90;;;;;;;-0.74;85.28;102304.19;5076897;28;20628;-69
2023/03/02 07:27:54;;;;;;;40.45;18.75;;;;;;;-0.69;84.93;102305.28;5066377;28;20045;-70
2023/03/02 07:30:22;;;;;;;41.70;20.20;;;;;;;-0.64;84.82;102295.09;5064996;28;20048;-69
2023/03/02 07:32:50;;;;;;;41.25;19.33;;;;;;;-0.61;84.48;102294.34;5068961;28;20033;-69
2023/03/02 07:35:17;;;;;;;38.55;17.67;;;;;;;-0.53;84.02;102292.91;5078950;28;20064;-70
2023/03/02 07:37:44;;;;;;;36.55;18.52;;;;;;;-0.47;83.80;102293.16;5059283;28;20824;-71
2023/03/02 07:40:12;;;;;;;34.40;17.50;;;;;;;-0.43;84.07;102295.03;5101119;28;20068;-69
2023/03/02 07:42:39;;;;;;;42.47;19.50;;;;;;;-0.35;83.58;102290.16;5055784;28;20473;-69
2023/03/02 07:45:07;;;;;;;34.67;17.58;;;;;;;-0.29;83.39;102295.56;5056447;28;20048;-69
2023/03/02 07:47:34;;;;;;;40.10;18.80;;;;;;;-0.21;82.72;102290.66;5085807;28;20068;-70
2023/03/02 07:50:02;;;;;;;36.47;21.92;;;;;;;-0.14;82.09;102287.47;5059047;28;20044;-71
2023/03/02 07:52:29;;;;;;;37.33;22.15;;;;;;;-0.04;81.82;102296.50;5066591;28;20159;-69
2023/03/02 07:54:56;;;;;;;34.83;17.95;;;;;;;0.03;81.59;102297.59;5069323;28;20041;-70
2023/03/02 07:57:23;;;;;;;37.78;20.65;;;;;;;0.09;81.26;102295.22;5067716;28;20040;-70
2023/03/02 07:59:50;;;;;;;34.70;20.13;;;;;;;0.23;80.35;102288.84;5064406;28;20067;-69
2023/03/02 08:02:19;;;;;;;35.08;19.83;;;;;;;0.28;80.36;102294.19;5066211;28;20033;-69
2023/03/02 08:04:46;;;;;;;31.23;18.77;;;;;;;0.38;79.63;102296.28;5087373;28;20048;-70
2023/03/02 08:07:14;;;;;;;29.60;18.15;;;;;;;0.48;78.96;102296.59;5104239;28;20040;-70
2023/03/02 08:09:41;;;;;;;34.47;19.05;;;;;;;0.57;77.94;102299.50;5088450;28;20036;-71
2023/03/02 08:12:08;;;;;;;28.95;18.05;;;;;;;0.65;77.43;102289.38;5087992;28;20039;-69
2023/03/02 08:14:37;;;;;;;30.27;18.58;;;;;;;0.77;77.06;102293.28;5088146;28;20048;-69
2023/03/02 08:17:05;;;;;;;29.52;15.73;;;;;;;0.84;76.63;102299.56;5085932;28;20064;-71
2023/03/02 08:19:32;;;;;;;30.38;17.13;;;;;;;0.92;76.07;102285.09;5085936;28;20116;-71
2023/03/02 08:22:01;;;;;;;24.85;15.20;;;;;;;1.01;75.40;102294.94;5087960;28;20036;-70
2023/03/02 08:24:28;;;;;;;29.90;17.58;;;;;;;1.04;75.72;102284.63;5055257;28;20038;-71
2023/03/02 08:27:00;;;;;;;31.90;16.88;;;;;;;1.16;75.28;102289.34;5063222;28;20137;-68
2023/03/02 08:29:29;;;;;;;28.70;16.23;;;;;;;1.28;74.87;102288.84;5069382;28;20041;-70
2023/03/02 08:31:57;;;;;;;28.98;15.88;;;;;;;1.33;74.83;102288.97;5067521;28;20116;-70
2023/03/02 08:34:25;;;;;;;25.92;15.57;;;;;;;1.43;73.88;102288.44;5067235;28;20568;-71
2023/03/02 08:36:52;;;;;;;27.67;16.05;;;;;;;1.47;73.75;102290.31;5066847;28;20572;-70
2023/03/02 08:39:21;;;;;;;28.25;16.63;;;;;;;1.57;72.96;102296.63;5079073;28;20044;-70
2023/03/02 08:41:52;;;;;;;29.88;17.20;;;;;;;1.62;73.32;102288.97;5063067;28;20519;-70
2023/03/02 08:44:22;;;;;;;27.70;16.20;;;;;;;1.70;73.23;102284.88;5046147;28;20042;-70
2023/03/02 08:46:50;;;;;;;25.08;15.10;;;;;;;1.75;72.99;102280.72;5047431;28;20045;-70
2023/03/02 08:49:18;;;;;;;24.95;16.05;;;;;;;1.85;72.76;102282.75;5047568;28;20077;-70
2023/03/02 08:51:52;;;;;;;25.80;15.13;;;;;;;2.00;72.09;102281.41;5047155;28;20037;-70
2023/03/02 08:54:20;;;;;;;26.00;14.30;;;;;;;2.09;70.54;102280.78;5086321;28;20599;-71
2023/03/02 08:56:47;;;;;;;25.75;13.95;;;;;;;2.14;70.79;102284.38;5086220;28;20037;-70
2023/03/02 08:59:15;;;;;;;25.92;15.23;;;;;;;2.21;70.55;102278.53;5078141;28;20056;-70
2023/03/02 09:01:42;;;;;;;24.52;15.00;;;;;;;2.30;70.09;102280.50;5067968;28;20112;-69
2023/03/02 09:04:10;;;;;;;25.88;14.40;;;;;;;2.35;69.71;102278.00;5067303;28;20086;-69
2023/03/02 09:06:41;;;;;;;25.00;14.73;;;;;;;2.39;69.58;102277.25;5066005;28;20041;-69
2023/03/02 09:09:11;;;;;;;22.83;14.35;;;;;;;2.41;69.66;102279.06;5050704;28;20297;-69
2023/03/02 09:11:39;;;;;;;25.10;15.27;;;;;;;2.47;69.87;102286.16;5062827;28;20136;-69
2023/03/02 09:14:06;;;;;;;24.52;14.13;;;;;;;2.54;69.71;102279.38;5079238;28;20042;-69
2023/03/02 09:16:33;;;;;;;25.20;14.50;;;;;;;2.62;69.90;102277.84;5047044;28;20037;-70
2023/03/02 09:19:00;;;;;;;24.45;14.65;;;;;;;2.79;68.63;102278.28;5046728;28;20041;-69
2023/03/02 09:21:27;;;;;;;21.67;13.90;;;;;;;2.79;68.53;102276.59;5049569;28;20049;-69
2023/03/02 09:23:56;;;;;;;23.95;14.43;;;;;;;2.80;68.84;102275.72;5087678;28;20170;-70
2023/03/02 09:26:25;;;;;;;24.50;14.40;;;;;;;2.97;67.44;102280.47;5086988;28;20044;-70
2023/03/02 09:28:53;;;;;;;23.70;14.05;;;;;;;3.02;66.95;102280.59;5082156;28;20075;-69
2023/03/02 09:31:20;;;;;;;23.20;14.57;;;;;;;3.02;67.43;102277.97;5066562;28;20045;-70
2023/03/02 09:33:47;;;;;;;23.70;13.82;;;;;;;3.06;67.24;102287.63;5066141;28;21630;-70
2023/03/02 09:36:21;;;;;;;22.88;14.10;;;;;;;3.12;67.33;102279.97;5081707;28;20517;-70
2023/03/02 09:38:48;;;;;;;22.17;13.60;;;;;;;3.23;66.31;102278.50;5064924;28;20064;-70
2023/03/02 09:41:18;;;;;;;24.23;14.30;;;;;;;3.34;66.10;102280.47;5066322;28;21228;-70
2023/03/02 09:44:16;;;;;;;22.38;14.05;;;;;;;3.38;66.15;102283.16;5064838;28;20045;-70
2023/03/02 09:47:03;;;;;;;24.38;13.98;;;;;;;3.49;66.51;102274.72;5066961;28;20028;-70
2023/03/02 09:50:03;;;;;;;21.55;13.55;;;;;;;3.62;66.17;102278.47;5069644;28;20040;-69
2023/03/02 09:53:04;;;;;;;20.75;13.85;;;;;;;3.70;65.89;102285.63;5100069;28;20090;-70
2023/03/02 09:55:35;;;;;;;22.27;14.50;;;;;;;3.78;65.55;102277.94;5090018;28;20045;-70
2023/03/02 09:58:16;;;;;;;23.90;14.57;;;;;;;3.91;64.17;102278.19;5090623;28;20044;-70
2023/03/02 10:00:44;;;;;;;23.55;12.88;;;;;;;3.96;63.36;102282.66;5069008;28;20124;-70
2023/03/02 10:03:22;;;;;;;20.70;12.27;;;;;;;4.00;63.00;102286.19;5068894;28;20037;-70
2023/03/02 10:05:54;;;;;;;21.30;13.48;;;;;;;4.02;63.09;102276.69;5087432;28;20044;-70
2023/03/02 10:08:26;;;;;;;23.00;13.40;;;;;;;4.06;62.65;102273.28;5089890;28;20519;-70
2023/03/02 10:11:14;;;;;;;19.63;12.20;;;;;;;4.06;63.02;102265.47;5089184;28;20039;-70
2023/03/02 10:14:02;;;;;;;21.35;12.80;;;;;;;4.15;62.04;102278.69;5090393;28;20601;-70
2023/03/02 10:17:21;;;;;;;19.83;12.63;;;;;;;4.18;61.80;102267.41;5087997;28;20115;-70
2023/03/02 10:20:09;;;;;;;20.08;12.93;;;;;;;4.24;62.06;102274.50;5105494;28;20047;-70
2023/03/02 10:22:50;;;;;;;21.42;13.00;;;;;;;4.34;61.86;102268.59;5090356;28;20087;-69
2023/03/02 10:25:34;;;;;;;19.27;12.95;;;;;;;4.42;62.59;102264.38;5090146;28;20051;-70
2023/03/02 10:28:25;;;;;;;19.50;12.35;;;;;;;4.57;61.83;102260.28;5105712;28;20043;-70
2023/03/02 10:31:29;;;;;;;19.65;11.38;;;;;;;4.82;60.23;102261.59;5047321;28;20483;-70
2023/03/02 10:33:58;;;;;;;19.83;11.80;;;;;;;4.84;59.08;102270.31;5049457;28;20049;-70
2023/03/02 10:36:36;;;;;;;17.38;11.60;;;;;;;4.80;59.03;102261.53;5060292;28;20269;-70
2023/03/02 10:39:12;;;;;;;19.52;11.73;;;;;;;4.84;59.67;102254.63;5068390;28;20040;-70
2023/03/02 10:41:57;;;;;;;16.77;11.75;;;;;;;5.00;59.46;102265.34;5069747;28;20078;-70
2023/03/02 10:44:36;;;;;;;18.90;11.48;;;;;;;5.13;58.80;102259.47;5069815;28;20079;-70
2023/03/02 10:47:06;;;;;;;17.13;10.80;;;;;;;5.21;57.79;102249.09;5102110;28;20037;-70
2023/03/02 10:49:40;;;;;;;22.98;14.13;;;;;;;5.24;58.12;102259.59;5085167;28;20053;-70
2023/03/02 10:52:21;;;;;;;21.30;13.00;;;;;;;5.34;58.41;102258.88;5049299;28;20499;-70
2023/03/02 10:54:48;;;;;;;17.00;10.52;;;;;;;5.40;56.84;102251.09;5049003;28;20041;-70
2023/03/02 10:57:40;;;;;;;17.48;11.00;;;;;;;5.46;57.16;102246.81;5049096;28;20046;-70
2023/03/02 11:00:22;;;;;;;18.02;10.57;;;;;;;5.61;56.64;102254.88;5061665;28;20383;-70
2023/03/02 11:02:59;;;;;;;16.65;10.57;;;;;;;5.70;55.79;102247.13;5069197;28;20036;-70
2023/03/02 11:05:40;;;;;;;17.88;10.68;;;;;;;5.73;56.14;102246.31;5074338;28;20043;-70
2023/03/02 11:08:19;;;;;;;17.23;10.40;;;;;;;5.88;55.84;102241.25;5088609;28;20517;-69
2023/03/02 11:10:56;;;;;;;15.95;9.85;;;;;;;6.08;54.92;102245.84;5089587;28;20037;-70
2023/03/02 11:13:35;;;;;;;17.40;10.32;;;;;;;6.16;54.12;102244.19;5105406;28;20059;-69
2023/03/02 11:16:18;;;;;;;15.25;9.77;;;;;;;6.28;54.14;102242.56;5088038;28;20102;-70
2023/03/02 11:19:02;;;;;;;15.68;10.20;;;;;;;6.23;53.78;102234.66;5074754;28;20041;-70
2023/03/02 11:21:37;;;;;;;16.88;10.18;;;;;;;6.25;54.38;102235.56;5059671;28;20045;-70
2023/03/02 11:24:12;;;;;;;16.48;10.43;;;;;;;6.35;54.81;102229.56;5087550;28;20125;-70
2023/03/02 11:27:18;;;;;;;15.75;9.68;;;;;;;6.50;53.17;102231.44;5053959;28;20049;-70
2023/03/02 11:30:11;;;;;;;13.98;9.35;;;;;;;6.49;53.44;102229.69;5062554;28;20718;-70
2023/03/02 11:32:47;;;;;;;14.32;9.57;;;;;;;6.55;53.44;102226.25;5055735;28;20041;-70
2023/03/02 11:35:42;;;;;;;14.02;8.00;;;;;;;6.71;52.65;102221.13;5051210;28;20041;-69
2023/03/02 11:38:49;;;;;;;17.63;9.02;;;;;;;6.75;52.48;102220.28;5063185;28;20049;-71
2023/03/02 11:41:33;;;;;;;17.38;10.07;;;;;;;6.76;52.28;102215.06;5066475;28;20154;-70